sensor_id;sensor_type;location;lat;lon;timestamp;P1;durP1;ratioP1;P2;durP2;ratioP2
43345;SDS011;28937;51.160;4.146;2023-04-01T00:00:15;7.53;;;1.85;;
43345;SDS011;28937;51.160;4.146;2023-04-01T00:02:41;6.30;;;1.90;;
43345;SDS011;28937;51.160;4.146;2023-04-01T00:05:08;5.07;;;1.70;;
43345;SDS011;28937;51.160;4.146;2023-04-01T00:07:35;4.22;;;1.77;;
43345;SDS011;28937;51.160;4.146;2023-04-01T00:10:06;8.20;;;2.38;;
43345;SDS011;28937;51.160;4.146;2023-04-01T00:12:32;7.20;;;2.22;;
43345;SDS011;28937;51.160;4.146;2023-04-01T00:14:58;6.95;;;2.13;;
43345;SDS011;28937;51.160;4.146;2023-04-01T00:17:24;6.38;;;2.20;;
43345;SDS011;28937;51.160;4.146;2023-04-01T00:19:50;6.07;;;2.17;;
43345;SDS011;28937;51.160;4.146;2023-04-01T00:22:15;5.75;;;2.15;;
43345;SDS011;28937;51.160;4.146;2023-04-01T00:24:41;4.93;;;1.92;;
43345;SDS011;28937;51.160;4.146;2023-04-01T00:27:07;5.53;;;2.05;;
43345;SDS011;28937;51.160;4.146;2023-04-01T00:29:33;6.38;;;2.15;;
43345;SDS011;28937;51.160;4.146;2023-04-01T00:31:59;5.80;;;2.22;;
43345;SDS011;28937;51.160;4.146;2023-04-01T00:34:25;6.32;;;2.65;;
43345;SDS011;28937;51.160;4.146;2023-04-01T00:36:51;7.63;;;2.60;;
43345;SDS011;28937;51.160;4.146;2023-04-01T00:39:17;11.05;;;3.30;;
43345;SDS011;28937;51.160;4.146;2023-04-01T00:41:44;8.18;;;2.72;;
43345;SDS011;28937;51.160;4.146;2023-04-01T00:44:26;4.20;;;2.33;;
43345;SDS011;28937;51.160;4.146;2023-04-01T00:46:54;6.95;;;3.10;;
43345;SDS011;28937;51.160;4.146;2023-04-01T00:49:21;5.97;;;2.80;;
43345;SDS011;28937;51.160;4.146;2023-04-01T00:51:50;4.75;;;2.35;;
43345;SDS011;28937;51.160;4.146;2023-04-01T00:54:19;7.13;;;2.72;;
43345;SDS011;28937;51.160;4.146;2023-04-01T00:56:47;4.95;;;2.83;;
43345;SDS011;28937;51.160;4.146;2023-04-01T00:59:18;5.00;;;2.80;;
43345;SDS011;28937;51.160;4.146;2023-04-01T01:01:50;8.30;;;2.65;;
43345;SDS011;28937;51.160;4.146;2023-04-01T01:04:26;5.60;;;3.20;;
43345;SDS011;28937;51.160;4.146;2023-04-01T01:07:03;6.75;;;3.53;;
43345;SDS011;28937;51.160;4.146;2023-04-01T01:10:04;10.57;;;3.50;;
43345;SDS011;28937;51.160;4.146;2023-04-01T01:23:57;4.85;;;2.30;;
43345;SDS011;28937;51.160;4.146;2023-04-01T01:37:46;5.95;;;2.38;;
43345;SDS011;28937;51.160;4.146;2023-04-01T01:40:15;4.63;;;2.85;;
43345;SDS011;28937;51.160;4.146;2023-04-01T01:42:43;6.15;;;2.97;;
43345;SDS011;28937;51.160;4.146;2023-04-01T01:45:13;4.57;;;2.33;;
43345;SDS011;28937;51.160;4.146;2023-04-01T01:47:42;5.68;;;2.10;;
43345;SDS011;28937;51.160;4.146;2023-04-01T01:50:10;6.07;;;2.78;;
43345;SDS011;28937;51.160;4.146;2023-04-01T01:52:36;4.22;;;2.30;;
43345;SDS011;28937;51.160;4.146;2023-04-01T01:55:02;6.53;;;2.75;;
43345;SDS011;28937;51.160;4.146;2023-04-01T01:57:29;5.32;;;1.95;;
43345;SDS011;28937;51.160;4.146;2023-04-01T01:59:59;5.82;;;2.45;;
43345;SDS011;28937;51.160;4.146;2023-04-01T02:02:37;5.97;;;2.35;;
43345;SDS011;28937;51.160;4.146;2023-04-01T02:05:05;4.75;;;2.47;;
43345;SDS011;28937;51.160;4.146;2023-04-01T02:07:33;6.43;;;2.80;;
43345;SDS011;28937;51.160;4.146;2023-04-01T02:10:00;6.45;;;2.40;;
43345;SDS011;28937;51.160;4.146;2023-04-01T02:12:27;6.10;;;2.25;;
43345;SDS011;28937;51.160;4.146;2023-04-01T02:14:58;3.45;;;1.98;;
43345;SDS011;28937;51.160;4.146;2023-04-01T02:17:32;4.90;;;2.40;;
43345;SDS011;28937;51.160;4.146;2023-04-01T02:20:03;5.47;;;2.83;;
43345;SDS011;28937;51.160;4.146;2023-04-01T02:22:43;6.07;;;3.30;;
43345;SDS011;28937;51.160;4.146;2023-04-01T02:25:14;2.95;;;1.58;;
43345;SDS011;28937;51.160;4.146;2023-04-01T02:27:43;5.35;;;2.63;;
43345;SDS011;28937;51.160;4.146;2023-04-01T02:30:10;5.70;;;2.88;;
43345;SDS011;28937;51.160;4.146;2023-04-01T02:32:37;3.70;;;2.50;;
43345;SDS011;28937;51.160;4.146;2023-04-01T02:35:07;4.78;;;2.72;;
43345;SDS011;28937;51.160;4.146;2023-04-01T02:37:35;3.53;;;2.50;;
43345;SDS011;28937;51.160;4.146;2023-04-01T02:40:04;3.95;;;2.65;;
43345;SDS011;28937;51.160;4.146;2023-04-01T02:42:34;5.20;;;2.25;;
43345;SDS011;28937;51.160;4.146;2023-04-01T02:45:00;2.83;;;1.60;;
43345;SDS011;28937;51.160;4.146;2023-04-01T02:47:26;5.97;;;1.80;;
43345;SDS011;28937;51.160;4.146;2023-04-01T02:49:52;2.83;;;1.60;;
43345;SDS011;28937;51.160;4.146;2023-04-01T02:52:23;4.70;;;1.77;;
43345;SDS011;28937;51.160;4.146;2023-04-01T02:54:53;2.35;;;1.63;;
43345;SDS011;28937;51.160;4.146;2023-04-01T02:57:19;3.15;;;1.65;;
43345;SDS011;28937;51.160;4.146;2023-04-01T02:59:46;3.08;;;1.35;;
43345;SDS011;28937;51.160;4.146;2023-04-01T03:02:11;3.30;;;1.23;;
43345;SDS011;28937;51.160;4.146;2023-04-01T03:04:37;2.25;;;1.02;;
43345;SDS011;28937;51.160;4.146;2023-04-01T03:07:03;1.67;;;1.02;;
43345;SDS011;28937;51.160;4.146;2023-04-01T03:09:28;2.92;;;1.48;;
43345;SDS011;28937;51.160;4.146;2023-04-01T03:11:55;2.35;;;1.42;;
43345;SDS011;28937;51.160;4.146;2023-04-01T03:14:20;3.17;;;1.48;;
43345;SDS011;28937;51.160;4.146;2023-04-01T03:16:46;2.40;;;1.33;;
43345;SDS011;28937;51.160;4.146;2023-04-01T03:19:11;3.92;;;1.58;;
43345;SDS011;28937;51.160;4.146;2023-04-01T03:21:37;2.00;;;1.38;;
43345;SDS011;28937;51.160;4.146;2023-04-01T03:24:03;2.83;;;1.33;;
43345;SDS011;28937;51.160;4.146;2023-04-01T03:26:28;4.03;;;1.60;;
43345;SDS011;28937;51.160;4.146;2023-04-01T03:28:54;3.78;;;1.73;;
43345;SDS011;28937;51.160;4.146;2023-04-01T03:31:20;3.85;;;1.90;;
43345;SDS011;28937;51.160;4.146;2023-04-01T03:33:46;3.65;;;1.50;;
43345;SDS011;28937;51.160;4.146;2023-04-01T03:36:12;3.35;;;1.95;;
43345;SDS011;28937;51.160;4.146;2023-04-01T03:38:38;4.45;;;2.00;;
43345;SDS011;28937;51.160;4.146;2023-04-01T03:41:05;4.10;;;1.90;;
43345;SDS011;28937;51.160;4.146;2023-04-01T03:43:31;7.03;;;2.45;;
43345;SDS011;28937;51.160;4.146;2023-04-01T03:45:58;3.25;;;2.00;;
43345;SDS011;28937;51.160;4.146;2023-04-01T03:48:23;3.95;;;2.20;;
43345;SDS011;28937;51.160;4.146;2023-04-01T03:50:50;4.97;;;2.28;;
43345;SDS011;28937;51.160;4.146;2023-04-01T03:53:16;5.15;;;2.30;;
43345;SDS011;28937;51.160;4.146;2023-04-01T03:55:42;3.15;;;2.03;;
43345;SDS011;28937;51.160;4.146;2023-04-01T03:58:08;5.15;;;2.42;;
43345;SDS011;28937;51.160;4.146;2023-04-01T04:00:34;4.53;;;2.30;;
43345;SDS011;28937;51.160;4.146;2023-04-01T04:02:59;3.78;;;2.30;;
43345;SDS011;28937;51.160;4.146;2023-04-01T04:05:25;4.05;;;2.25;;
43345;SDS011;28937;51.160;4.146;2023-04-01T04:07:51;4.30;;;2.13;;
43345;SDS011;28937;51.160;4.146;2023-04-01T04:10:18;3.75;;;2.38;;
43345;SDS011;28937;51.160;4.146;2023-04-01T04:12:44;5.13;;;2.22;;
43345;SDS011;28937;51.160;4.146;2023-04-01T04:15:10;4.22;;;2.00;;
43345;SDS011;28937;51.160;4.146;2023-04-01T04:17:36;2.65;;;1.60;;
43345;SDS011;28937;51.160;4.146;2023-04-01T04:20:02;2.53;;;1.40;;
43345;SDS011;28937;51.160;4.146;2023-04-01T04:22:28;3.88;;;2.20;;
43345;SDS011;28937;51.160;4.146;2023-04-01T04:24:54;4.20;;;2.15;;
43345;SDS011;28937;51.160;4.146;2023-04-01T04:27:20;3.40;;;2.10;;
43345;SDS011;28937;51.160;4.146;2023-04-01T04:29:45;2.92;;;2.50;;
43345;SDS011;28937;51.160;4.146;2023-04-01T04:32:11;3.08;;;2.20;;
43345;SDS011;28937;51.160;4.146;2023-04-01T04:34:36;4.80;;;2.38;;
43345;SDS011;28937;51.160;4.146;2023-04-01T04:37:02;5.35;;;1.90;;
43345;SDS011;28937;51.160;4.146;2023-04-01T04:39:28;2.72;;;1.73;;
43345;SDS011;28937;51.160;4.146;2023-04-01T04:41:54;3.13;;;1.90;;
43345;SDS011;28937;51.160;4.146;2023-04-01T04:44:19;3.22;;;1.90;;
43345;SDS011;28937;51.160;4.146;2023-04-01T04:46:45;5.13;;;2.50;;
43345;SDS011;28937;51.160;4.146;2023-04-01T04:49:11;3.65;;;1.90;;
43345;SDS011;28937;51.160;4.146;2023-04-01T04:51:36;3.10;;;2.08;;
43345;SDS011;28937;51.160;4.146;2023-04-01T04:54:02;3.42;;;2.35;;
43345;SDS011;28937;51.160;4.146;2023-04-01T04:56:28;3.20;;;1.95;;
43345;SDS011;28937;51.160;4.146;2023-04-01T04:58:55;3.40;;;2.22;;
43345;SDS011;28937;51.160;4.146;2023-04-01T05:01:21;2.92;;;2.50;;
43345;SDS011;28937;51.160;4.146;2023-04-01T05:03:47;5.20;;;2.45;;
43345;SDS011;28937;51.160;4.146;2023-04-01T05:06:13;3.28;;;2.92;;
43345;SDS011;28937;51.160;4.146;2023-04-01T05:08:39;5.07;;;2.55;;
43345;SDS011;28937;51.160;4.146;2023-04-01T05:11:09;2.88;;;2.40;;
43345;SDS011;28937;51.160;4.146;2023-04-01T05:13:38;4.00;;;1.83;;
43345;SDS011;28937;51.160;4.146;2023-04-01T05:16:07;2.97;;;1.67;;
43345;SDS011;28937;51.160;4.146;2023-04-01T05:18:33;2.83;;;1.95;;
43345;SDS011;28937;51.160;4.146;2023-04-01T05:20:59;4.13;;;1.52;;
43345;SDS011;28937;51.160;4.146;2023-04-01T05:23:24;3.15;;;1.27;;
43345;SDS011;28937;51.160;4.146;2023-04-01T05:25:50;3.38;;;1.23;;
43345;SDS011;28937;51.160;4.146;2023-04-01T05:28:18;1.40;;;1.05;;
43345;SDS011;28937;51.160;4.146;2023-04-01T05:30:44;2.47;;;1.30;;
43345;SDS011;28937;51.160;4.146;2023-04-01T05:33:11;2.03;;;1.30;;
43345;SDS011;28937;51.160;4.146;2023-04-01T05:35:38;3.42;;;1.15;;
43345;SDS011;28937;51.160;4.146;2023-04-01T05:38:04;2.92;;;1.50;;
43345;SDS011;28937;51.160;4.146;2023-04-01T05:40:30;1.98;;;1.10;;
43345;SDS011;28937;51.160;4.146;2023-04-01T05:42:56;1.35;;;0.70;;
43345;SDS011;28937;51.160;4.146;2023-04-01T05:45:22;2.00;;;0.68;;
43345;SDS011;28937;51.160;4.146;2023-04-01T05:47:47;1.85;;;0.63;;
43345;SDS011;28937;51.160;4.146;2023-04-01T05:50:13;2.13;;;0.80;;
43345;SDS011;28937;51.160;4.146;2023-04-01T05:52:39;1.55;;;0.57;;
43345;SDS011;28937;51.160;4.146;2023-04-01T05:55:05;1.95;;;1.10;;
43345;SDS011;28937;51.160;4.146;2023-04-01T05:57:31;1.15;;;0.60;;
43345;SDS011;28937;51.160;4.146;2023-04-01T05:59:57;2.33;;;0.80;;
43345;SDS011;28937;51.160;4.146;2023-04-01T06:02:22;1.05;;;0.45;;
43345;SDS011;28937;51.160;4.146;2023-04-01T06:04:48;0.65;;;0.20;;
43345;SDS011;28937;51.160;4.146;2023-04-01T06:07:15;2.08;;;0.52;;
43345;SDS011;28937;51.160;4.146;2023-04-01T06:09:42;1.00;;;0.52;;
43345;SDS011;28937;51.160;4.146;2023-04-01T06:20:46;1.85;;;0.57;;
43345;SDS011;28937;51.160;4.146;2023-04-01T06:23:46;1.55;;;0.32;;
43345;SDS011;28937;51.160;4.146;2023-04-01T06:34:26;3.97;;;0.93;;
43345;SDS011;28937;51.160;4.146;2023-04-01T06:45:38;2.50;;;0.30;;
43345;SDS011;28937;51.160;4.146;2023-04-01T06:56:06;1.50;;;0.40;;
43345;SDS011;28937;51.160;4.146;2023-04-01T06:58:36;2.45;;;0.63;;
43345;SDS011;28937;51.160;4.146;2023-04-01T07:01:07;3.42;;;0.35;;
43345;SDS011;28937;51.160;4.146;2023-04-01T07:03:44;4.22;;;0.57;;
43345;SDS011;28937;51.160;4.146;2023-04-01T07:06:30;3.70;;;0.20;;
43345;SDS011;28937;51.160;4.146;2023-04-01T07:09:09;7.13;;;0.40;;
43345;SDS011;28937;51.160;4.146;2023-04-01T07:11:39;2.90;;;0.52;;
43345;SDS011;28937;51.160;4.146;2023-04-01T07:16:40;2.28;;;0.50;;
43345;SDS011;28937;51.160;4.146;2023-04-01T07:22:05;2.17;;;0.30;;
43345;SDS011;28937;51.160;4.146;2023-04-01T07:24:44;2.67;;;0.22;;
43345;SDS011;28937;51.160;4.146;2023-04-01T07:27:11;1.13;;;0.28;;
43345;SDS011;28937;51.160;4.146;2023-04-01T07:29:38;2.25;;;0.55;;
43345;SDS011;28937;51.160;4.146;2023-04-01T07:37:42;2.42;;;0.32;;
43345;SDS011;28937;51.160;4.146;2023-04-01T07:46:22;2.65;;;0.70;;
43345;SDS011;28937;51.160;4.146;2023-04-01T07:49:04;2.55;;;0.40;;
43345;SDS011;28937;51.160;4.146;2023-04-01T07:57:22;1.33;;;0.20;;
43345;SDS011;28937;51.160;4.146;2023-04-01T08:00:17;2.15;;;0.40;;
43345;SDS011;28937;51.160;4.146;2023-04-01T08:02:51;1.30;;;0.50;;
43345;SDS011;28937;51.160;4.146;2023-04-01T08:13:52;1.73;;;0.55;;
43345;SDS011;28937;51.160;4.146;2023-04-01T08:21:50;1.80;;;0.47;;
43345;SDS011;28937;51.160;4.146;2023-04-01T08:24:22;1.65;;;0.50;;
43345;SDS011;28937;51.160;4.146;2023-04-01T08:26:51;1.83;;;0.47;;
43345;SDS011;28937;51.160;4.146;2023-04-01T08:29:22;0.90;;;0.38;;
43345;SDS011;28937;51.160;4.146;2023-04-01T08:31:53;1.13;;;0.30;;
43345;SDS011;28937;51.160;4.146;2023-04-01T08:34:28;0.50;;;0.30;;
43345;SDS011;28937;51.160;4.146;2023-04-01T08:37:14;1.20;;;0.38;;
43345;SDS011;28937;51.160;4.146;2023-04-01T08:39:46;1.33;;;0.45;;
43345;SDS011;28937;51.160;4.146;2023-04-01T08:48:00;3.65;;;0.80;;
43345;SDS011;28937;51.160;4.146;2023-04-01T08:51:02;2.30;;;0.38;;
43345;SDS011;28937;51.160;4.146;2023-04-01T08:56:50;3.00;;;0.30;;
43345;SDS011;28937;51.160;4.146;2023-04-01T08:59:24;2.85;;;0.20;;
43345;SDS011;28937;51.160;4.146;2023-04-01T09:07:58;1.25;;;0.35;;
43345;SDS011;28937;51.160;4.146;2023-04-01T09:11:26;2.72;;;0.70;;
43345;SDS011;28937;51.160;4.146;2023-04-01T09:16:35;5.90;;;0.50;;
43345;SDS011;28937;51.160;4.146;2023-04-01T09:42:15;15.52;;;5.88;;
43345;SDS011;28937;51.160;4.146;2023-04-01T09:53:13;13.23;;;6.63;;
43345;SDS011;28937;51.160;4.146;2023-04-01T10:10:54;4.38;;;1.85;;
43345;SDS011;28937;51.160;4.146;2023-04-01T10:25:32;11.00;;;3.78;;
43345;SDS011;28937;51.160;4.146;2023-04-01T11:01:47;2.58;;;1.08;;
43345;SDS011;28937;51.160;4.146;2023-04-01T11:13:17;1.02;;;0.52;;
43345;SDS011;28937;51.160;4.146;2023-04-01T11:33:28;2.03;;;0.57;;
43345;SDS011;28937;51.160;4.146;2023-04-01T11:41:32;2.08;;;0.52;;
43345;SDS011;28937;51.160;4.146;2023-04-01T11:44:16;2.22;;;0.52;;
43345;SDS011;28937;51.160;4.146;2023-04-01T11:58:20;3.55;;;0.60;;
43345;SDS011;28937;51.160;4.146;2023-04-01T12:23:08;3.17;;;0.80;;
43345;SDS011;28937;51.160;4.146;2023-04-01T12:26:45;3.15;;;0.73;;
43345;SDS011;28937;51.160;4.146;2023-04-01T12:28:58;2.60;;;0.90;;
43345;SDS011;28937;51.160;4.146;2023-04-01T12:31:55;3.45;;;0.82;;
43345;SDS011;28937;51.160;4.146;2023-04-01T12:40:27;3.58;;;0.77;;
43345;SDS011;28937;51.160;4.146;2023-04-01T12:56:39;1.35;;;0.80;;
43345;SDS011;28937;51.160;4.146;2023-04-01T13:02:00;3.42;;;0.60;;
43345;SDS011;28937;51.160;4.146;2023-04-01T13:04:51;1.83;;;0.30;;
43345;SDS011;28937;51.160;4.146;2023-04-01T13:13:40;3.60;;;0.73;;
43345;SDS011;28937;51.160;4.146;2023-04-01T13:16:40;1.30;;;0.30;;
43345;SDS011;28937;51.160;4.146;2023-04-01T13:19:16;2.50;;;0.63;;
43345;SDS011;28937;51.160;4.146;2023-04-01T13:32:36;3.45;;;0.35;;
43345;SDS011;28937;51.160;4.146;2023-04-01T13:35:20;2.08;;;0.40;;
43345;SDS011;28937;51.160;4.146;2023-04-01T13:43:26;14.18;;;0.65;;
43345;SDS011;28937;51.160;4.146;2023-04-01T14:11:07;2.03;;;0.20;;
43345;SDS011;28937;51.160;4.146;2023-04-01T14:13:56;3.05;;;0.38;;
43345;SDS011;28937;51.160;4.146;2023-04-01T14:41:44;9.40;;;1.70;;
43345;SDS011;28937;51.160;4.146;2023-04-01T15:00:48;3.40;;;0.70;;
43345;SDS011;28937;51.160;4.146;2023-04-01T15:14:54;6.72;;;1.05;;
43345;SDS011;28937;51.160;4.146;2023-04-01T15:17:48;7.78;;;0.82;;
43345;SDS011;28937;51.160;4.146;2023-04-01T15:23:23;5.93;;;1.23;;
43345;SDS011;28937;51.160;4.146;2023-04-01T15:26:25;2.25;;;0.60;;
43345;SDS011;28937;51.160;4.146;2023-04-01T15:29:01;7.68;;;0.90;;
43345;SDS011;28937;51.160;4.146;2023-04-01T15:31:50;2.97;;;0.43;;
43345;SDS011;28937;51.160;4.146;2023-04-01T15:37:04;1.55;;;0.40;;
43345;SDS011;28937;51.160;4.146;2023-04-01T15:47:32;3.70;;;0.50;;
43345;SDS011;28937;51.160;4.146;2023-04-01T15:55:51;5.03;;;1.00;;
43345;SDS011;28937;51.160;4.146;2023-04-01T16:10:19;4.25;;;1.10;;
43345;SDS011;28937;51.160;4.146;2023-04-01T16:13:44;4.82;;;1.10;;
43345;SDS011;28937;51.160;4.146;2023-04-01T16:16:04;3.22;;;1.20;;
43345;SDS011;28937;51.160;4.146;2023-04-01T16:24:10;1.75;;;0.60;;
43345;SDS011;28937;51.160;4.146;2023-04-01T16:27:02;1.67;;;0.70;;
43345;SDS011;28937;51.160;4.146;2023-04-01T16:29:36;3.03;;;0.98;;
43345;SDS011;28937;51.160;4.146;2023-04-01T16:35:14;3.83;;;0.80;;
43345;SDS011;28937;51.160;4.146;2023-04-01T16:38:03;3.13;;;1.77;;
43345;SDS011;28937;51.160;4.146;2023-04-01T16:40:37;1.88;;;0.90;;
43345;SDS011;28937;51.160;4.146;2023-04-01T16:45:53;2.70;;;1.50;;
43345;SDS011;28937;51.160;4.146;2023-04-01T16:49:08;2.83;;;1.88;;
43345;SDS011;28937;51.160;4.146;2023-04-01T16:51:22;3.83;;;2.10;;
43345;SDS011;28937;51.160;4.146;2023-04-01T16:56:43;1.92;;;1.40;;
43345;SDS011;28937;51.160;4.146;2023-04-01T17:04:46;2.47;;;1.67;;
43345;SDS011;28937;51.160;4.146;2023-04-01T17:07:22;3.30;;;1.77;;
43345;SDS011;28937;51.160;4.146;2023-04-01T17:18:07;5.18;;;2.25;;
43345;SDS011;28937;51.160;4.146;2023-04-01T17:21:06;4.50;;;2.28;;
43345;SDS011;28937;51.160;4.146;2023-04-01T17:26:31;5.25;;;2.47;;
43345;SDS011;28937;51.160;4.146;2023-04-01T17:29:24;4.80;;;2.00;;
43345;SDS011;28937;51.160;4.146;2023-04-01T17:46:01;4.10;;;2.67;;
43345;SDS011;28937;51.160;4.146;2023-04-01T17:51:29;6.27;;;2.60;;
43345;SDS011;28937;51.160;4.146;2023-04-01T17:59:35;4.03;;;2.00;;
43345;SDS011;28937;51.160;4.146;2023-04-01T18:02:07;4.53;;;2.47;;
43345;SDS011;28937;51.160;4.146;2023-04-01T18:07:30;6.22;;;3.53;;
43345;SDS011;28937;51.160;4.146;2023-04-01T18:21:45;13.02;;;4.97;;
43345;SDS011;28937;51.160;4.146;2023-04-01T18:38:13;18.85;;;5.15;;
43345;SDS011;28937;51.160;4.146;2023-04-01T18:41:05;15.70;;;4.97;;
43345;SDS011;28937;51.160;4.146;2023-04-01T18:43:57;13.13;;;4.22;;
43345;SDS011;28937;51.160;4.146;2023-04-01T18:57:47;15.25;;;4.50;;
43345;SDS011;28937;51.160;4.146;2023-04-01T19:00:32;14.90;;;5.03;;
43345;SDS011;28937;51.160;4.146;2023-04-01T19:03:08;12.88;;;4.57;;
43345;SDS011;28937;51.160;4.146;2023-04-01T19:05:55;14.97;;;4.33;;
43345;SDS011;28937;51.160;4.146;2023-04-01T19:11:05;13.85;;;5.05;;
43345;SDS011;28937;51.160;4.146;2023-04-01T19:16:50;13.02;;;4.50;;
43345;SDS011;28937;51.160;4.146;2023-04-01T19:19:21;13.85;;;4.45;;
43345;SDS011;28937;51.160;4.146;2023-04-01T19:22:57;14.20;;;4.60;;
43345;SDS011;28937;51.160;4.146;2023-04-01T19:27:53;12.23;;;4.68;;
43345;SDS011;28937;51.160;4.146;2023-04-01T19:31:29;14.13;;;5.03;;
43345;SDS011;28937;51.160;4.146;2023-04-01T19:41:40;12.68;;;4.78;;
43345;SDS011;28937;51.160;4.146;2023-04-01T19:47:13;16.40;;;5.55;;
43345;SDS011;28937;51.160;4.146;2023-04-01T19:52:14;17.33;;;5.50;;
43345;SDS011;28937;51.160;4.146;2023-04-01T19:54:51;18.48;;;5.70;;
43345;SDS011;28937;51.160;4.146;2023-04-01T19:57:50;14.88;;;5.07;;
43345;SDS011;28937;51.160;4.146;2023-04-01T20:03:01;15.37;;;5.43;;
43345;SDS011;28937;51.160;4.146;2023-04-01T20:05:44;20.65;;;6.00;;
43345;SDS011;28937;51.160;4.146;2023-04-01T20:08:25;18.00;;;5.53;;
43345;SDS011;28937;51.160;4.146;2023-04-01T20:11:11;24.73;;;6.07;;
43345;SDS011;28937;51.160;4.146;2023-04-01T20:13:52;21.85;;;6.47;;
43345;SDS011;28937;51.160;4.146;2023-04-01T20:16:48;16.58;;;5.88;;
43345;SDS011;28937;51.160;4.146;2023-04-01T20:19:28;18.42;;;5.53;;
43345;SDS011;28937;51.160;4.146;2023-04-01T20:22:02;14.93;;;6.22;;
43345;SDS011;28937;51.160;4.146;2023-04-01T20:24:36;11.57;;;5.78;;
43345;SDS011;28937;51.160;4.146;2023-04-01T20:40:47;15.82;;;6.35;;
43345;SDS011;28937;51.160;4.146;2023-04-01T20:46:00;11.35;;;6.57;;
43345;SDS011;28937;51.160;4.146;2023-04-01T20:48:51;12.98;;;7.18;;
43345;SDS011;28937;51.160;4.146;2023-04-01T20:51:30;17.02;;;7.70;;
43345;SDS011;28937;51.160;4.146;2023-04-01T20:56:53;14.93;;;7.45;;
43345;SDS011;28937;51.160;4.146;2023-04-01T21:13:32;12.30;;;8.18;;
43345;SDS011;28937;51.160;4.146;2023-04-01T21:31:44;16.65;;;9.52;;
43345;SDS011;28937;51.160;4.146;2023-04-01T21:34:31;14.27;;;9.48;;
43345;SDS011;28937;51.160;4.146;2023-04-01T21:40:00;12.40;;;8.65;;
43345;SDS011;28937;51.160;4.146;2023-04-01T21:58:44;11.07;;;8.68;;
43345;SDS011;28937;51.160;4.146;2023-04-01T22:01:28;10.25;;;7.97;;
43345;SDS011;28937;51.160;4.146;2023-04-01T22:07:21;8.75;;;6.93;;
43345;SDS011;28937;51.160;4.146;2023-04-01T22:34:16;6.72;;;6.07;;
43345;SDS011;28937;51.160;4.146;2023-04-01T22:37:15;6.65;;;5.97;;
43345;SDS011;28937;51.160;4.146;2023-04-01T22:42:53;7.38;;;6.50;;
43345;SDS011;28937;51.160;4.146;2023-04-01T22:56:07;7.90;;;7.20;;
43345;SDS011;28937;51.160;4.146;2023-04-01T22:59:00;8.07;;;7.38;;
43345;SDS011;28937;51.160;4.146;2023-04-01T23:01:51;7.65;;;6.90;;
43345;SDS011;28937;51.160;4.146;2023-04-01T23:04:24;8.27;;;7.57;;
43345;SDS011;28937;51.160;4.146;2023-04-01T23:06:57;8.15;;;7.18;;
43345;SDS011;28937;51.160;4.146;2023-04-01T23:09:31;7.78;;;7.13;;
43345;SDS011;28937;51.160;4.146;2023-04-01T23:12:00;7.80;;;7.10;;
43345;SDS011;28937;51.160;4.146;2023-04-01T23:14:47;7.78;;;7.07;;
43345;SDS011;28937;51.160;4.146;2023-04-01T23:22:28;8.32;;;7.57;;
43345;SDS011;28937;51.160;4.146;2023-04-01T23:35:45;7.43;;;6.72;;
43345;SDS011;28937;51.160;4.146;2023-04-01T23:38:30;8.07;;;7.28;;
43345;SDS011;28937;51.160;4.146;2023-04-01T23:41:02;7.63;;;6.97;;
43345;SDS011;28937;51.160;4.146;2023-04-01T23:43:49;8.65;;;7.80;;
43345;SDS011;28937;51.160;4.146;2023-04-01T23:46:22;8.43;;;7.72;;
43345;SDS011;28937;51.160;4.146;2023-04-01T23:48:49;9.48;;;8.68;;
43345;SDS011;28937;51.160;4.146;2023-04-01T23:53:55;8.68;;;7.85;;
43345;SDS011;28937;51.160;4.146;2023-04-01T23:56:41;8.48;;;7.70;;
43345;SDS011;28937;51.160;4.146;2023-04-01T23:59:17;8.82;;;7.93;;
